createdAt,value
2017-02-24T00:00:15.865Z,946.78
2017-02-24T00:01:26.194Z,947.02
2017-02-24T00:02:35.366Z,946.68
2017-02-24T00:03:44.546Z,946.97
2017-02-24T00:04:54.133Z,947.06
2017-02-24T00:06:04.507Z,946.95
2017-02-24T00:07:13.293Z,947.19
2017-02-24T00:08:22.845Z,947.32
2017-02-24T00:09:32.403Z,947.24
2017-02-24T00:10:41.969Z,947.34
2017-02-24T00:11:51.554Z,947.42
2017-02-24T00:13:01.521Z,947.43
2017-02-24T00:14:11.419Z,947.65
2017-02-24T00:15:21.354Z,947.7
2017-02-24T00:16:31.282Z,947.89
2017-02-24T00:17:40.839Z,947.76
2017-02-24T00:18:50.800Z,948.07
2017-02-24T00:19:59.627Z,948.19
2017-02-24T00:21:09.587Z,948.26
2017-02-24T00:22:18.725Z,948.41
2017-02-24T00:23:27.908Z,948.43
2017-02-24T00:24:36.710Z,948.52
2017-02-24T00:25:46.260Z,948.63
2017-02-24T00:26:55.785Z,948.6
2017-02-24T00:28:05.727Z,948.85
2017-02-24T00:29:14.908Z,948.67
2017-02-24T00:30:24.490Z,948.78
2017-02-24T00:31:34.036Z,948.91
2017-02-24T00:32:43.934Z,948.88
2017-02-24T00:33:53.116Z,949.04
2017-02-24T00:35:02.299Z,949.1
2017-02-24T00:36:11.873Z,949.12
2017-02-24T00:37:21.755Z,949.16
2017-02-24T00:38:31.710Z,949.31
2017-02-24T00:39:41.595Z,949.35
2017-02-24T00:40:51.545Z,949.31
2017-02-24T00:42:01.907Z,949.25
2017-02-24T00:43:11.074Z,949.44
2017-02-24T00:44:20.651Z,949.54
2017-02-24T00:45:30.594Z,949.59
2017-02-24T00:46:39.388Z,949.67
2017-02-24T00:47:49.353Z,949.72
2017-02-24T00:48:58.915Z,949.84
2017-02-24T00:50:08.102Z,949.86
2017-02-24T00:51:17.662Z,949.9
2017-02-24T00:52:26.820Z,949.92
2017-02-24T00:53:36.779Z,949.92
2017-02-24T00:54:45.951Z,950.05
2017-02-24T00:55:55.025Z,950.14
2017-02-24T00:57:04.538Z,950.17
2017-02-24T00:58:13.264Z,950.33
2017-02-24T00:59:22.068Z,950.07
2017-02-24T01:00:32.434Z,950.52
2017-02-24T01:01:42.738Z,950.37
2017-02-24T01:02:52.290Z,950.62
2017-02-24T01:04:01.460Z,950.44
2017-02-24T01:05:10.636Z,950.6
2017-02-24T01:06:20.218Z,950.81
2017-02-24T01:07:30.532Z,950.77
2017-02-24T01:08:40.811Z,950.71
2017-02-24T01:09:50.747Z,950.74
2017-02-24T01:11:00.695Z,950.86
2017-02-24T01:12:10.643Z,950.93
2017-02-24T01:13:19.798Z,951.04
2017-02-24T01:14:30.074Z,951.07
2017-02-24T01:15:40.023Z,950.98
2017-02-24T01:16:50.354Z,951.12
2017-02-24T01:17:59.531Z,951.31
2017-02-24T01:19:09.107Z,951.33
2017-02-24T01:20:18.297Z,951.43
2017-02-24T01:21:29.049Z,951.38
2017-02-24T01:22:38.615Z,951.45
2017-02-24T01:23:48.181Z,951.49
2017-02-24T01:24:57.797Z,951.61
2017-02-24T01:26:07.415Z,951.65
2017-02-24T01:27:16.561Z,951.56
2017-02-24T01:28:26.453Z,951.73
2017-02-24T01:29:36.007Z,951.69
2017-02-24T01:30:44.730Z,951.83
2017-02-24T01:31:55.023Z,951.95
2017-02-24T01:33:04.562Z,952.02
2017-02-24T01:34:13.421Z,951.9
2017-02-24T01:35:22.190Z,951.95
2017-02-24T01:36:31.375Z,951.88
2017-02-24T01:37:40.518Z,952.04
2017-02-24T01:38:50.486Z,952.06
2017-02-24T01:40:00.348Z,952.21
2017-02-24T01:41:09.877Z,952.18
2017-02-24T01:42:19.830Z,952.15
2017-02-24T01:43:28.996Z,952.34
2017-02-24T01:44:38.141Z,952.27
2017-02-24T01:45:47.256Z,952.25
2017-02-24T01:46:56.736Z,952.37
2017-02-24T01:48:06.265Z,952.55
2017-02-24T01:49:16.230Z,952.57
2017-02-24T01:50:25.786Z,952.48
2017-02-24T01:51:36.119Z,952.55
2017-02-24T01:52:45.607Z,952.54
2017-02-24T01:53:55.117Z,952.53
2017-02-24T01:55:04.312Z,952.57
2017-02-24T01:56:13.857Z,952.72
2017-02-24T01:57:23.067Z,952.69
2017-02-24T01:58:32.241Z,952.79
2017-02-24T01:59:42.203Z,952.82
2017-02-24T02:00:52.762Z,952.93
2017-02-24T02:02:01.924Z,952.9
2017-02-24T02:03:11.115Z,952.86
2017-02-24T02:04:20.300Z,952.88
2017-02-24T02:05:29.058Z,952.98
2017-02-24T02:06:38.635Z,952.99
2017-02-24T02:07:47.761Z,953.02
2017-02-24T02:08:58.079Z,953.11
2017-02-24T02:10:08.037Z,953.07
2017-02-24T02:11:16.805Z,953.12
2017-02-24T02:12:26.317Z,953.22
2017-02-24T02:13:35.902Z,953.23
2017-02-24T02:14:45.074Z,953.3
2017-02-24T02:15:54.661Z,953.34
2017-02-24T02:17:03.835Z,953.29
2017-02-24T02:18:14.118Z,953.33
2017-02-24T02:19:23.660Z,953.36
2017-02-24T02:20:32.824Z,953.36
2017-02-24T02:21:42.401Z,953.3
2017-02-24T02:22:52.348Z,953.44
2017-02-24T02:24:01.545Z,953.41
2017-02-24T02:25:11.135Z,953.4
2017-02-24T02:26:20.328Z,953.49
2017-02-24T02:27:29.897Z,953.54
2017-02-24T02:28:39.074Z,953.51
2017-02-24T02:29:49.035Z,953.55
2017-02-24T02:30:59.020Z,953.56
2017-02-24T02:32:08.984Z,953.53
2017-02-24T02:33:18.951Z,953.53
2017-02-24T02:34:29.309Z,953.56
2017-02-24T02:35:39.293Z,953.6
2017-02-24T02:36:49.175Z,953.61
2017-02-24T02:37:59.127Z,953.6
2017-02-24T02:39:07.933Z,953.68
2017-02-24T02:40:17.472Z,953.8
2017-02-24T02:41:26.685Z,953.74
2017-02-24T02:42:35.858Z,953.87
2017-02-24T02:43:44.983Z,953.86
2017-02-24T02:44:53.765Z,953.91
2017-02-24T02:46:02.930Z,953.87
2017-02-24T02:47:12.474Z,954.03
2017-02-24T02:48:22.005Z,954
2017-02-24T02:49:31.581Z,953.9
2017-02-24T02:50:40.705Z,953.97
2017-02-24T02:51:50.661Z,954.01
2017-02-24T02:53:00.225Z,954.07
2017-02-24T02:54:09.420Z,954.03
2017-02-24T02:55:18.594Z,954.08
2017-02-24T02:56:28.169Z,954.09
2017-02-24T02:57:37.348Z,954.18
2017-02-24T02:58:47.671Z,954.25
2017-02-24T02:59:58.017Z,954.23
2017-02-24T03:01:07.585Z,954.26
2017-02-24T03:02:17.143Z,954.31
2017-02-24T03:03:27.138Z,954.27
2017-02-24T03:04:37.094Z,954.38
2017-02-24T03:05:46.260Z,954.32
2017-02-24T03:06:56.148Z,954.35
2017-02-24T03:08:05.346Z,954.39
2017-02-24T03:09:15.312Z,954.51
2017-02-24T03:10:25.292Z,954.44
2017-02-24T03:11:34.847Z,954.48
2017-02-24T03:12:43.983Z,954.47
2017-02-24T03:13:54.712Z,954.52
2017-02-24T03:15:04.287Z,954.54
2017-02-24T03:16:13.406Z,954.54
2017-02-24T03:17:22.600Z,954.58
2017-02-24T03:18:31.791Z,954.67
2017-02-24T03:19:40.971Z,954.64
2017-02-24T03:20:50.517Z,954.72
2017-02-24T03:22:00.093Z,954.69
2017-02-24T03:23:09.612Z,954.79
2017-02-24T03:24:18.793Z,954.79
2017-02-24T03:25:28.381Z,954.76
2017-02-24T03:26:37.561Z,954.83
2017-02-24T03:27:47.115Z,954.84
2017-02-24T03:28:57.415Z,954.83
2017-02-24T03:30:06.987Z,954.89
2017-02-24T03:31:16.203Z,954.9
2017-02-24T03:32:26.186Z,954.89
2017-02-24T03:33:36.942Z,954.86
2017-02-24T03:34:46.468Z,954.93
2017-02-24T03:35:56.794Z,954.94
2017-02-24T03:37:06.754Z,954.95
2017-02-24T03:38:17.089Z,954.9
2017-02-24T03:39:26.268Z,954.91
2017-02-24T03:40:36.216Z,954.99
2017-02-24T03:41:46.491Z,955.01
2017-02-24T03:42:56.069Z,954.97
2017-02-24T03:44:05.598Z,954.99
2017-02-24T03:45:15.173Z,955.02
2017-02-24T03:46:24.380Z,954.99
2017-02-24T03:47:34.715Z,955.04
2017-02-24T03:48:43.910Z,955.05
2017-02-24T03:49:53.107Z,955.09
2017-02-24T03:51:02.696Z,955.14
2017-02-24T03:52:11.895Z,955.19
2017-02-24T03:53:21.116Z,955.19
2017-02-24T03:54:30.317Z,955.28
2017-02-24T03:55:39.186Z,955.3
2017-02-24T03:56:48.796Z,955.31
2017-02-24T03:57:59.185Z,955.35
2017-02-24T03:59:08.408Z,955.43
2017-02-24T04:00:18.380Z,955.38
2017-02-24T04:01:28.355Z,955.41
2017-02-24T04:02:37.942Z,955.51
2017-02-24T04:03:47.935Z,955.62
2017-02-24T04:04:57.551Z,955.59
2017-02-24T04:06:07.517Z,955.69
2017-02-24T04:07:18.290Z,955.68
2017-02-24T04:08:27.491Z,955.71
2017-02-24T04:09:38.238Z,955.68
2017-02-24T04:10:48.538Z,955.71
2017-02-24T04:11:57.720Z,955.71
2017-02-24T04:13:07.308Z,955.73
2017-02-24T04:14:16.830Z,955.8
2017-02-24T04:15:26.348Z,955.77
2017-02-24T04:16:36.323Z,955.73
2017-02-24T04:17:46.295Z,955.78
2017-02-24T04:18:55.513Z,955.79
2017-02-24T04:20:04.722Z,955.81
2017-02-24T04:21:13.922Z,955.82
2017-02-24T04:22:23.091Z,955.86
2017-02-24T04:23:32.335Z,955.83
2017-02-24T04:24:41.933Z,955.85
2017-02-24T04:25:52.333Z,955.92
2017-02-24T04:27:01.199Z,955.93
2017-02-24T04:28:10.785Z,955.94
2017-02-24T04:29:20.759Z,955.96
2017-02-24T04:30:30.347Z,955.94
2017-02-24T04:31:40.720Z,955.99
2017-02-24T04:32:50.700Z,956.03
2017-02-24T04:34:00.692Z,956.04
2017-02-24T04:35:09.897Z,956.13
2017-02-24T04:36:19.543Z,956.14
2017-02-24T04:37:29.906Z,956.13
2017-02-24T04:38:40.261Z,956.22
2017-02-24T04:39:49.780Z,956.28
2017-02-24T04:40:58.974Z,956.3
2017-02-24T04:42:08.997Z,956.33
2017-02-24T04:43:18.960Z,956.33
2017-02-24T04:44:28.112Z,956.32
2017-02-24T04:45:37.708Z,956.43
2017-02-24T04:46:47.298Z,956.35
2017-02-24T04:47:57.672Z,956.39
2017-02-24T04:49:08.055Z,956.42
2017-02-24T04:50:17.631Z,956.43
2017-02-24T04:51:26.443Z,956.47
2017-02-24T04:52:36.421Z,956.48
2017-02-24T04:53:45.611Z,956.52
2017-02-24T04:54:55.163Z,956.5
2017-02-24T04:56:05.144Z,956.6
2017-02-24T04:57:14.330Z,956.66
2017-02-24T04:58:24.316Z,956.71
2017-02-24T04:59:33.121Z,956.68
2017-02-24T05:00:43.445Z,956.75
2017-02-24T05:01:53.370Z,956.73
2017-02-24T05:03:02.958Z,956.78
2017-02-24T05:04:12.159Z,956.81
2017-02-24T05:05:21.731Z,956.8
2017-02-24T05:06:31.310Z,956.81
2017-02-24T05:07:41.298Z,956.8
2017-02-24T05:08:51.303Z,956.85
2017-02-24T05:10:00.896Z,956.84
2017-02-24T05:11:09.705Z,956.91
2017-02-24T05:12:19.284Z,956.91
2017-02-24T05:13:28.817Z,956.94
2017-02-24T05:14:37.632Z,956.94
2017-02-24T05:15:47.548Z,956.96
2017-02-24T05:16:56.744Z,956.95
2017-02-24T05:18:06.755Z,957.02
2017-02-24T05:19:16.337Z,956.97
2017-02-24T05:20:25.534Z,957.01
2017-02-24T05:21:35.145Z,957.03
2017-02-24T05:22:44.339Z,956.99
2017-02-24T05:23:53.956Z,957.04
2017-02-24T05:25:04.343Z,956.94
2017-02-24T05:26:14.341Z,957.01
2017-02-24T05:27:24.294Z,956.97
2017-02-24T05:28:33.808Z,957.06
2017-02-24T05:29:43.457Z,957.06
2017-02-24T05:30:53.066Z,957.04
2017-02-24T05:32:02.284Z,957.09
2017-02-24T05:33:11.491Z,957.15
2017-02-24T05:34:20.707Z,957.1
2017-02-24T05:35:30.288Z,957.15
2017-02-24T05:36:39.825Z,957.15
2017-02-24T05:37:49.828Z,957.16
2017-02-24T05:39:00.206Z,957.24
2017-02-24T05:40:09.400Z,957.23
2017-02-24T05:41:18.204Z,957.32
2017-02-24T05:42:27.389Z,957.26
2017-02-24T05:43:37.344Z,957.33
2017-02-24T05:44:46.910Z,957.32
2017-02-24T05:45:56.127Z,957.34
2017-02-24T05:47:06.070Z,957.3
2017-02-24T05:48:15.322Z,957.39
2017-02-24T05:49:24.901Z,957.36
2017-02-24T05:50:35.268Z,957.34
2017-02-24T05:51:44.851Z,957.45
2017-02-24T05:52:53.657Z,957.44
2017-02-24T05:54:03.622Z,957.51
2017-02-24T05:55:13.591Z,957.55
2017-02-24T05:56:22.771Z,957.7
2017-02-24T05:57:31.908Z,957.58
2017-02-24T05:58:41.890Z,957.54
2017-02-24T05:59:51.899Z,957.6
2017-02-24T06:01:01.461Z,957.64
2017-02-24T06:02:11.827Z,957.56
2017-02-24T06:03:21.420Z,957.75
2017-02-24T06:04:30.616Z,957.64
2017-02-24T06:05:40.144Z,957.76
2017-02-24T06:06:49.719Z,957.8
2017-02-24T06:07:59.304Z,957.85
2017-02-24T06:09:08.515Z,957.84
2017-02-24T06:10:18.867Z,957.78
2017-02-24T06:11:28.835Z,957.95
2017-02-24T06:12:39.198Z,958.05
2017-02-24T06:13:49.936Z,958.08
2017-02-24T06:14:59.895Z,958.13
2017-02-24T06:16:08.734Z,958.21
2017-02-24T06:17:18.661Z,958.21
2017-02-24T06:18:28.244Z,958.33
2017-02-24T06:19:38.233Z,958.36
2017-02-24T06:20:47.427Z,958.32
2017-02-24T06:21:56.220Z,958.37
2017-02-24T06:23:05.731Z,958.43
2017-02-24T06:24:15.655Z,958.37
2017-02-24T06:25:25.243Z,958.47
2017-02-24T06:26:34.838Z,958.57
2017-02-24T06:27:44.421Z,958.6
2017-02-24T06:28:53.616Z,958.62
2017-02-24T06:30:03.196Z,958.59
2017-02-24T06:31:13.164Z,958.61
2017-02-24T06:32:22.380Z,958.63
2017-02-24T06:33:31.966Z,958.69
2017-02-24T06:34:41.177Z,958.72
2017-02-24T06:35:51.162Z,958.67
2017-02-24T06:37:00.571Z,958.74
2017-02-24T06:38:09.794Z,958.82
2017-02-24T06:39:20.160Z,958.81
2017-02-24T06:40:28.943Z,958.84
2017-02-24T06:41:38.105Z,958.83
2017-02-24T06:42:47.707Z,958.88
2017-02-24T06:43:56.909Z,958.89
2017-02-24T06:45:06.902Z,958.94
2017-02-24T06:46:16.881Z,958.98
2017-02-24T06:47:26.496Z,959.04
2017-02-24T06:48:35.320Z,959.09
2017-02-24T06:49:44.908Z,959.11
2017-02-24T06:50:55.269Z,959.14
2017-02-24T06:52:04.804Z,959.13
2017-02-24T06:53:14.405Z,959.18
2017-02-24T06:54:24.714Z,959.13
2017-02-24T06:55:35.074Z,959.12
2017-02-24T06:56:44.657Z,959.24
2017-02-24T06:57:53.856Z,959.24
2017-02-24T06:59:03.139Z,959.23
2017-02-24T07:00:12.344Z,959.25
2017-02-24T07:01:21.546Z,959.23
2017-02-24T07:02:30.357Z,959.24
2017-02-24T07:03:39.507Z,959.25
2017-02-24T07:04:49.885Z,959.3
2017-02-24T07:05:59.466Z,959.28
2017-02-24T07:07:09.066Z,959.34
2017-02-24T07:08:18.669Z,959.4
2017-02-24T07:09:27.440Z,959.44
2017-02-24T07:10:37.037Z,959.44
2017-02-24T07:11:47.400Z,959.47
2017-02-24T07:12:57.699Z,959.49
2017-02-24T07:14:06.521Z,959.51
2017-02-24T07:15:15.722Z,959.51
2017-02-24T07:16:24.475Z,959.51
2017-02-24T07:17:34.454Z,959.61
2017-02-24T07:18:44.056Z,959.57
2017-02-24T07:19:53.661Z,959.66
2017-02-24T07:21:02.808Z,959.76
2017-02-24T07:22:13.579Z,959.72
2017-02-24T07:23:23.194Z,959.74
2017-02-24T07:24:32.389Z,959.74
2017-02-24T07:25:42.357Z,959.8
2017-02-24T07:26:51.516Z,959.78
2017-02-24T07:28:01.536Z,959.85
2017-02-24T07:29:11.150Z,959.86
2017-02-24T07:30:20.352Z,959.84
2017-02-24T07:31:29.540Z,959.92
2017-02-24T07:32:39.124Z,959.97
2017-02-24T07:33:48.319Z,959.99
2017-02-24T07:34:57.883Z,960.03
2017-02-24T07:36:07.475Z,960.09
2017-02-24T07:37:17.086Z,960.11
2017-02-24T07:38:25.919Z,960.08
2017-02-24T07:39:35.498Z,960.14
2017-02-24T07:40:45.083Z,960.12
2017-02-24T07:41:53.894Z,960.14
2017-02-24T07:43:03.670Z,960.23
2017-02-24T07:44:13.289Z,960.19
2017-02-24T07:45:23.298Z,960.28
2017-02-24T07:46:32.494Z,960.33
2017-02-24T07:47:42.468Z,960.27
2017-02-24T07:48:52.446Z,960.33
2017-02-24T07:50:02.027Z,960.35
2017-02-24T07:51:11.255Z,960.34
2017-02-24T07:52:21.221Z,960.37
2017-02-24T07:53:30.753Z,960.43
2017-02-24T07:54:40.364Z,960.45
2017-02-24T07:55:49.966Z,960.46
2017-02-24T07:56:59.612Z,960.49
2017-02-24T07:58:09.193Z,960.48
2017-02-24T07:59:18.388Z,960.56
2017-02-24T08:00:28.338Z,960.55
2017-02-24T08:01:38.656Z,960.6
2017-02-24T08:02:48.632Z,960.56
2017-02-24T08:03:57.831Z,960.59
2017-02-24T08:05:06.644Z,960.64
2017-02-24T08:06:16.200Z,960.59
2017-02-24T08:07:25.801Z,960.67
2017-02-24T08:08:35.395Z,960.69
2017-02-24T08:09:44.613Z,960.76
2017-02-24T08:10:54.589Z,960.75
2017-02-24T08:12:04.961Z,960.79
2017-02-24T08:13:14.114Z,960.78
2017-02-24T08:14:24.050Z,960.79
2017-02-24T08:15:33.977Z,960.89
2017-02-24T08:16:43.978Z,960.91
2017-02-24T08:17:54.360Z,960.92
2017-02-24T08:19:03.968Z,960.93
2017-02-24T08:20:14.332Z,961
2017-02-24T08:21:23.544Z,961
2017-02-24T08:22:33.521Z,960.96
2017-02-24T08:23:43.487Z,961.05
2017-02-24T08:24:53.020Z,961.04
2017-02-24T08:26:02.990Z,961.11
2017-02-24T08:27:11.791Z,961.16
2017-02-24T08:28:21.704Z,961.16
2017-02-24T08:29:30.939Z,961.19
2017-02-24T08:30:40.105Z,961.22
2017-02-24T08:31:49.320Z,961.24
2017-02-24T08:32:58.499Z,961.28
2017-02-24T08:34:08.115Z,961.3
2017-02-24T08:35:18.105Z,961.28
2017-02-24T08:36:27.684Z,961.31
2017-02-24T08:37:36.874Z,961.35
2017-02-24T08:38:47.629Z,961.39
2017-02-24T08:39:58.078Z,961.38
2017-02-24T08:41:07.292Z,961.45
2017-02-24T08:42:16.116Z,961.46
2017-02-24T08:43:26.038Z,961.46
2017-02-24T08:44:36.028Z,961.55
2017-02-24T08:45:46.000Z,961.53
2017-02-24T08:46:55.135Z,961.58
2017-02-24T08:48:05.507Z,961.59
2017-02-24T08:49:15.117Z,961.62
2017-02-24T08:50:25.089Z,961.64
2017-02-24T08:51:35.057Z,961.66
2017-02-24T08:52:45.020Z,961.64
2017-02-24T08:53:54.606Z,961.64
2017-02-24T08:55:04.598Z,961.67
2017-02-24T08:56:14.585Z,961.7
2017-02-24T08:57:24.182Z,961.68
2017-02-24T08:58:32.955Z,961.71
2017-02-24T08:59:42.949Z,961.77
2017-02-24T09:00:51.775Z,961.81
2017-02-24T09:02:01.362Z,961.83
2017-02-24T09:03:10.565Z,961.88
2017-02-24T09:04:20.151Z,961.86
2017-02-24T09:05:29.734Z,961.86
2017-02-24T09:06:38.933Z,961.89
2017-02-24T09:07:48.167Z,961.85
2017-02-24T09:08:58.556Z,961.92
2017-02-24T09:10:08.943Z,961.92
2017-02-24T09:11:17.762Z,961.94
2017-02-24T09:12:27.363Z,962
2017-02-24T09:13:36.942Z,961.95
2017-02-24T09:14:46.913Z,961.95
2017-02-24T09:15:56.118Z,962.08
2017-02-24T09:17:06.079Z,962.02
2017-02-24T09:18:16.444Z,962.01
2017-02-24T09:19:26.003Z,962.06
2017-02-24T09:20:34.847Z,962.1
2017-02-24T09:21:44.034Z,962.15
2017-02-24T09:22:54.773Z,962.12
2017-02-24T09:24:04.370Z,962.16
2017-02-24T09:25:13.988Z,962.15
2017-02-24T09:26:23.167Z,962.23
2017-02-24T09:27:31.938Z,962.16
2017-02-24T09:28:42.310Z,962.17
2017-02-24T09:29:51.125Z,962.16
2017-02-24T09:31:01.046Z,962.29
2017-02-24T09:32:10.654Z,962.32
2017-02-24T09:33:20.270Z,962.32
2017-02-24T09:34:30.243Z,962.32
2017-02-24T09:35:39.480Z,962.34
2017-02-24T09:36:49.840Z,962.32
2017-02-24T09:37:59.758Z,962.31
2017-02-24T09:39:09.744Z,962.25
2017-02-24T09:40:18.938Z,962.32
2017-02-24T09:41:28.861Z,962.38
2017-02-24T09:42:38.063Z,962.38
2017-02-24T09:43:47.687Z,962.41
2017-02-24T09:44:58.266Z,962.36
2017-02-24T09:46:07.475Z,962.41
2017-02-24T09:47:17.451Z,962.37
2017-02-24T09:48:27.462Z,962.48
2017-02-24T09:49:36.292Z,962.42
2017-02-24T09:50:46.230Z,962.45
2017-02-24T09:51:55.800Z,962.44
2017-02-24T09:53:04.942Z,962.5
2017-02-24T09:54:14.928Z,962.51
2017-02-24T09:55:24.453Z,962.49
2017-02-24T09:56:34.047Z,962.56
2017-02-24T09:57:43.626Z,962.54
2017-02-24T09:58:53.204Z,962.53
2017-02-24T10:00:03.970Z,962.6
2017-02-24T10:01:13.963Z,962.61
2017-02-24T10:02:23.940Z,962.62
2017-02-24T10:03:33.864Z,962.65
2017-02-24T10:04:43.450Z,962.63
2017-02-24T10:05:53.055Z,962.66
2017-02-24T10:07:03.418Z,962.65
2017-02-24T10:08:13.395Z,962.7
2017-02-24T10:09:23.377Z,962.71
2017-02-24T10:10:32.632Z,962.78
2017-02-24T10:11:42.226Z,962.82
2017-02-24T10:12:52.204Z,962.8
2017-02-24T10:14:01.772Z,962.82
2017-02-24T10:15:10.947Z,962.9
2017-02-24T10:16:20.538Z,962.89
2017-02-24T10:17:30.129Z,962.88
2017-02-24T10:18:39.358Z,962.89
2017-02-24T10:19:48.544Z,962.94
2017-02-24T10:20:58.123Z,963
2017-02-24T10:22:07.475Z,962.99
2017-02-24T10:23:17.085Z,963
2017-02-24T10:24:27.057Z,963.03
2017-02-24T10:25:36.258Z,963.06
2017-02-24T10:26:45.860Z,963.07
2017-02-24T10:27:55.820Z,963.11
2017-02-24T10:29:05.729Z,963.2
2017-02-24T10:30:14.933Z,963.17
2017-02-24T10:31:23.732Z,963.11
2017-02-24T10:32:33.686Z,963.19
2017-02-24T10:33:44.052Z,963.14
2017-02-24T10:34:54.051Z,963.21
2017-02-24T10:36:04.004Z,963.11
2017-02-24T10:37:13.930Z,963.11
2017-02-24T10:38:23.524Z,963.13
2017-02-24T10:39:33.123Z,963.14
2017-02-24T10:40:42.669Z,963.14
2017-02-24T10:41:52.585Z,963.19
2017-02-24T10:43:02.115Z,963.19
2017-02-24T10:44:11.510Z,963.22
2017-02-24T10:45:20.741Z,963.2
2017-02-24T10:46:29.932Z,963.23
2017-02-24T10:47:39.120Z,963.17
2017-02-24T10:48:48.718Z,963.18
2017-02-24T10:49:58.649Z,963.25
2017-02-24T10:51:08.236Z,963.2
2017-02-24T10:52:17.849Z,963.25
2017-02-24T10:53:27.040Z,963.26
2017-02-24T10:54:35.839Z,963.35
2017-02-24T10:55:45.392Z,963.32
2017-02-24T10:56:54.593Z,963.28
2017-02-24T10:58:04.185Z,963.28
2017-02-24T10:59:13.334Z,963.27
2017-02-24T11:00:23.284Z,963.26
2017-02-24T11:01:32.820Z,963.3
2017-02-24T11:02:42.408Z,963.36
2017-02-24T11:03:51.603Z,963.4
2017-02-24T11:05:01.581Z,963.39
2017-02-24T11:06:10.425Z,963.36
2017-02-24T11:07:20.750Z,963.43
2017-02-24T11:08:30.719Z,963.36
2017-02-24T11:09:40.259Z,963.44
2017-02-24T11:10:49.076Z,963.43
2017-02-24T11:11:59.421Z,963.45
2017-02-24T11:13:08.970Z,963.51
2017-02-24T11:14:18.563Z,963.53
2017-02-24T11:15:27.763Z,963.54
2017-02-24T11:16:36.917Z,963.57
2017-02-24T11:17:46.452Z,963.55
2017-02-24T11:18:56.067Z,963.58
2017-02-24T11:20:05.927Z,963.61
2017-02-24T11:21:15.926Z,963.61
2017-02-24T11:22:25.113Z,963.61
2017-02-24T11:23:34.704Z,963.61
2017-02-24T11:24:44.321Z,963.54
2017-02-24T11:25:53.126Z,963.53
2017-02-24T11:27:02.737Z,963.58
2017-02-24T11:28:12.296Z,963.59
2017-02-24T11:29:22.232Z,963.61
2017-02-24T11:30:31.768Z,963.57
2017-02-24T11:31:41.740Z,963.58
2017-02-24T11:32:51.728Z,963.62
2017-02-24T11:34:01.694Z,963.66
2017-02-24T11:35:11.610Z,963.65
2017-02-24T11:36:20.831Z,963.61
2017-02-24T11:37:31.579Z,963.53
2017-02-24T11:38:41.937Z,963.55
2017-02-24T11:39:51.533Z,963.59
2017-02-24T11:41:01.504Z,963.62
2017-02-24T11:42:12.269Z,963.64
2017-02-24T11:43:21.843Z,963.71
2017-02-24T11:44:31.755Z,963.64
2017-02-24T11:45:42.121Z,963.67
2017-02-24T11:46:52.134Z,963.68
2017-02-24T11:48:02.040Z,963.67
2017-02-24T11:49:11.202Z,963.72
2017-02-24T11:50:20.391Z,963.82
2017-02-24T11:51:29.596Z,963.74
2017-02-24T11:52:38.825Z,963.75
2017-02-24T11:53:48.795Z,963.81
2017-02-24T11:54:58.770Z,963.78
2017-02-24T11:56:08.741Z,963.78
2017-02-24T11:57:18.367Z,963.82
2017-02-24T11:58:27.959Z,963.87
2017-02-24T11:59:38.749Z,963.92
2017-02-24T12:00:48.735Z,963.89
2017-02-24T12:01:58.724Z,963.87
2017-02-24T12:03:08.643Z,963.88
2017-02-24T12:04:18.953Z,963.86
2017-02-24T12:05:28.848Z,963.87
2017-02-24T12:06:37.606Z,963.89
2017-02-24T12:07:46.427Z,963.89
2017-02-24T12:08:55.582Z,963.85
2017-02-24T12:10:05.508Z,963.93
2017-02-24T12:11:15.089Z,963.86
2017-02-24T12:12:25.075Z,963.9
2017-02-24T12:13:35.116Z,963.87
2017-02-24T12:14:44.693Z,963.89
2017-02-24T12:15:53.866Z,963.89
2017-02-24T12:17:03.060Z,963.98
2017-02-24T12:18:13.429Z,963.94
2017-02-24T12:19:22.220Z,963.91
2017-02-24T12:20:31.759Z,963.94
2017-02-24T12:21:41.366Z,963.92
2017-02-24T12:22:51.295Z,963.9
2017-02-24T12:24:01.231Z,963.88
2017-02-24T12:25:11.206Z,963.89
2017-02-24T12:26:21.170Z,963.87
2017-02-24T12:27:30.346Z,963.88
2017-02-24T12:28:40.312Z,963.85
2017-02-24T12:29:50.692Z,963.89
2017-02-24T12:30:59.891Z,963.93
2017-02-24T12:32:09.423Z,964.02
2017-02-24T12:33:19.745Z,964
2017-02-24T12:34:30.136Z,963.99
2017-02-24T12:35:39.353Z,963.93
2017-02-24T12:36:49.345Z,963.99
2017-02-24T12:37:59.329Z,963.95
2017-02-24T12:39:09.345Z,963.96
2017-02-24T12:40:18.922Z,963.97
2017-02-24T12:41:28.873Z,964.05
2017-02-24T12:42:38.068Z,964.03
2017-02-24T12:43:48.043Z,964.03
2017-02-24T12:44:57.657Z,964.01
2017-02-24T12:46:08.405Z,964.08
2017-02-24T12:47:18.730Z,964.12
2017-02-24T12:48:28.328Z,964.15
2017-02-24T12:49:37.567Z,964.18
2017-02-24T12:50:47.579Z,964.17
2017-02-24T12:51:56.775Z,964.19
2017-02-24T12:53:06.318Z,964.21
2017-02-24T12:54:16.292Z,964.21
2017-02-24T12:55:26.263Z,964.2
2017-02-24T12:56:35.839Z,964.32
2017-02-24T12:57:45.052Z,964.39
2017-02-24T12:58:54.254Z,964.45
2017-02-24T13:00:04.230Z,964.47
2017-02-24T13:01:13.813Z,964.52
2017-02-24T13:02:24.195Z,964.58
2017-02-24T13:03:34.197Z,964.62
2017-02-24T13:04:43.801Z,964.67
2017-02-24T13:05:53.768Z,964.69
2017-02-24T13:07:03.335Z,964.61
2017-02-24T13:08:13.718Z,964.68
2017-02-24T13:09:23.722Z,964.65
2017-02-24T13:10:33.325Z,964.62
2017-02-24T13:11:43.696Z,964.59
2017-02-24T13:12:53.295Z,964.57
2017-02-24T13:14:03.673Z,964.5
2017-02-24T13:15:13.237Z,964.53
2017-02-24T13:16:23.598Z,964.5
2017-02-24T13:17:32.820Z,964.58
2017-02-24T13:18:42.459Z,964.57
2017-02-24T13:19:52.054Z,964.58
2017-02-24T13:21:01.661Z,964.49
2017-02-24T13:22:10.467Z,964.45
2017-02-24T13:23:19.287Z,964.41
2017-02-24T13:24:28.135Z,964.44
2017-02-24T13:25:37.331Z,964.42
2017-02-24T13:26:46.920Z,964.4
2017-02-24T13:27:56.837Z,964.44
2017-02-24T13:29:06.430Z,964.5
2017-02-24T13:30:16.842Z,964.49
2017-02-24T13:31:27.218Z,964.51
2017-02-24T13:32:36.039Z,964.54
2017-02-24T13:33:45.621Z,964.53
2017-02-24T13:34:55.196Z,964.51
2017-02-24T13:36:05.503Z,964.49
2017-02-24T13:37:15.883Z,964.5
2017-02-24T13:38:25.869Z,964.53
2017-02-24T13:39:35.850Z,964.51
2017-02-24T13:40:46.212Z,964.49
2017-02-24T13:41:56.190Z,964.5
2017-02-24T13:43:05.528Z,964.49
2017-02-24T13:44:14.727Z,964.46
2017-02-24T13:45:24.735Z,964.5
2017-02-24T13:46:34.154Z,964.5
2017-02-24T13:47:43.350Z,964.53
2017-02-24T13:48:52.527Z,964.52
2017-02-24T13:50:02.839Z,964.51
2017-02-24T13:51:12.424Z,964.56
2017-02-24T13:52:22.802Z,964.54
2017-02-24T13:53:32.770Z,964.5
2017-02-24T13:54:43.133Z,964.47
2017-02-24T13:55:53.038Z,964.53
2017-02-24T13:57:02.632Z,964.5
2017-02-24T13:58:12.236Z,964.55
2017-02-24T13:59:21.428Z,964.52
2017-02-24T14:00:31.045Z,964.51
2017-02-24T14:01:40.238Z,964.52
2017-02-24T14:02:49.840Z,964.47
2017-02-24T14:03:59.824Z,964.46
2017-02-24T14:05:09.365Z,964.45
2017-02-24T14:06:19.356Z,964.5
2017-02-24T14:07:29.342Z,964.47
2017-02-24T14:08:38.925Z,964.41
2017-02-24T14:09:48.917Z,964.43
2017-02-24T14:10:58.107Z,964.43
2017-02-24T14:12:07.676Z,964.43
2017-02-24T14:13:16.494Z,964.48
2017-02-24T14:14:26.091Z,964.49
2017-02-24T14:15:35.246Z,964.5
2017-02-24T14:16:44.868Z,964.56
2017-02-24T14:17:54.834Z,964.51
2017-02-24T14:19:03.608Z,964.6
2017-02-24T14:20:13.152Z,964.54
2017-02-24T14:21:22.798Z,964.59
2017-02-24T14:22:32.384Z,964.58
2017-02-24T14:23:41.158Z,964.57
2017-02-24T14:24:51.065Z,964.61
2017-02-24T14:26:01.187Z,964.63
2017-02-24T14:27:10.415Z,964.63
2017-02-24T14:28:20.799Z,964.67
2017-02-24T14:29:30.733Z,964.61
2017-02-24T14:30:40.255Z,964.62
2017-02-24T14:31:49.032Z,964.64